sensor_id;sensor_type;location;lat;lon;timestamp;P1;durP1;ratioP1;P2;durP2;ratioP2
59388;SDS011;51830;45.202;19.720;2023-04-15T00:01:28;12.50;;;3.88;;
59388;SDS011;51830;45.202;19.720;2023-04-15T00:03:56;15.60;;;3.78;;
59388;SDS011;51830;45.202;19.720;2023-04-15T00:06:22;15.38;;;4.07;;
59388;SDS011;51830;45.202;19.720;2023-04-15T00:08:48;12.80;;;3.63;;
59388;SDS011;51830;45.202;19.720;2023-04-15T00:11:15;11.70;;;3.28;;
59388;SDS011;51830;45.202;19.720;2023-04-15T00:13:42;14.00;;;4.32;;
59388;SDS011;51830;45.202;19.720;2023-04-15T00:16:10;15.82;;;5.35;;
59388;SDS011;51830;45.202;19.720;2023-04-15T00:18:36;12.88;;;3.80;;
59388;SDS011;51830;45.202;19.720;2023-04-15T00:21:03;15.32;;;5.20;;
59388;SDS011;51830;45.202;19.720;2023-04-15T00:23:29;13.73;;;4.65;;
59388;SDS011;51830;45.202;19.720;2023-04-15T00:25:56;15.98;;;4.55;;
59388;SDS011;51830;45.202;19.720;2023-04-15T00:28:22;12.88;;;4.57;;
59388;SDS011;51830;45.202;19.720;2023-04-15T00:30:49;14.70;;;4.28;;
59388;SDS011;51830;45.202;19.720;2023-04-15T00:33:16;11.60;;;3.28;;
59388;SDS011;51830;45.202;19.720;2023-04-15T00:35:43;14.70;;;4.35;;
59388;SDS011;51830;45.202;19.720;2023-04-15T00:38:09;13.50;;;4.60;;
59388;SDS011;51830;45.202;19.720;2023-04-15T00:40:36;12.18;;;3.60;;
59388;SDS011;51830;45.202;19.720;2023-04-15T00:43:02;14.18;;;4.20;;
59388;SDS011;51830;45.202;19.720;2023-04-15T00:45:30;15.98;;;6.03;;
59388;SDS011;51830;45.202;19.720;2023-04-15T00:47:58;20.45;;;6.50;;
59388;SDS011;51830;45.202;19.720;2023-04-15T00:50:24;24.92;;;7.05;;
59388;SDS011;51830;45.202;19.720;2023-04-15T00:52:50;17.98;;;5.90;;
59388;SDS011;51830;45.202;19.720;2023-04-15T00:55:17;18.73;;;5.43;;
59388;SDS011;51830;45.202;19.720;2023-04-15T00:57:43;19.67;;;5.90;;
59388;SDS011;51830;45.202;19.720;2023-04-15T01:00:10;17.50;;;5.20;;
59388;SDS011;51830;45.202;19.720;2023-04-15T01:02:37;16.42;;;4.95;;
59388;SDS011;51830;45.202;19.720;2023-04-15T01:05:04;16.30;;;4.78;;
59388;SDS011;51830;45.202;19.720;2023-04-15T01:07:32;11.27;;;3.80;;
59388;SDS011;51830;45.202;19.720;2023-04-15T01:09:58;13.32;;;4.20;;
59388;SDS011;51830;45.202;19.720;2023-04-15T01:12:26;15.07;;;4.10;;
59388;SDS011;51830;45.202;19.720;2023-04-15T01:14:54;9.07;;;2.65;;
59388;SDS011;51830;45.202;19.720;2023-04-15T01:17:21;10.88;;;3.30;;
59388;SDS011;51830;45.202;19.720;2023-04-15T01:19:48;11.32;;;2.72;;
59388;SDS011;51830;45.202;19.720;2023-04-15T01:22:16;8.85;;;2.40;;
59388;SDS011;51830;45.202;19.720;2023-04-15T01:24:48;7.97;;;1.90;;
59388;SDS011;51830;45.202;19.720;2023-04-15T01:27:16;9.35;;;2.72;;
59388;SDS011;51830;45.202;19.720;2023-04-15T01:29:42;9.43;;;3.00;;
59388;SDS011;51830;45.202;19.720;2023-04-15T01:32:08;9.85;;;2.60;;
59388;SDS011;51830;45.202;19.720;2023-04-15T01:34:34;5.70;;;1.95;;
59388;SDS011;51830;45.202;19.720;2023-04-15T01:37:01;4.57;;;1.77;;
59388;SDS011;51830;45.202;19.720;2023-04-15T01:39:27;13.07;;;2.38;;
59388;SDS011;51830;45.202;19.720;2023-04-15T01:41:53;7.90;;;2.20;;
59388;SDS011;51830;45.202;19.720;2023-04-15T01:44:19;14.88;;;4.20;;
59388;SDS011;51830;45.202;19.720;2023-04-15T01:46:45;13.55;;;3.85;;
59388;SDS011;51830;45.202;19.720;2023-04-15T01:49:12;19.90;;;6.93;;
59388;SDS011;51830;45.202;19.720;2023-04-15T01:51:38;14.48;;;4.82;;
59388;SDS011;51830;45.202;19.720;2023-04-15T01:54:04;12.05;;;3.55;;
59388;SDS011;51830;45.202;19.720;2023-04-15T01:56:31;10.27;;;2.88;;
59388;SDS011;51830;45.202;19.720;2023-04-15T01:58:57;16.80;;;5.45;;
59388;SDS011;51830;45.202;19.720;2023-04-15T02:01:23;20.25;;;6.18;;
59388;SDS011;51830;45.202;19.720;2023-04-15T02:03:49;9.57;;;2.85;;
59388;SDS011;51830;45.202;19.720;2023-04-15T02:06:16;14.25;;;4.40;;
59388;SDS011;51830;45.202;19.720;2023-04-15T02:08:42;10.70;;;2.83;;
59388;SDS011;51830;45.202;19.720;2023-04-15T02:11:08;12.02;;;3.30;;
59388;SDS011;51830;45.202;19.720;2023-04-15T02:13:34;9.25;;;2.50;;
59388;SDS011;51830;45.202;19.720;2023-04-15T02:16:01;8.27;;;2.20;;
59388;SDS011;51830;45.202;19.720;2023-04-15T02:18:28;7.47;;;2.08;;
59388;SDS011;51830;45.202;19.720;2023-04-15T02:20:54;7.25;;;2.10;;
59388;SDS011;51830;45.202;19.720;2023-04-15T02:23:22;7.75;;;2.50;;
59388;SDS011;51830;45.202;19.720;2023-04-15T02:25:48;5.57;;;1.83;;
59388;SDS011;51830;45.202;19.720;2023-04-15T02:28:15;6.72;;;2.08;;
59388;SDS011;51830;45.202;19.720;2023-04-15T02:30:41;8.80;;;2.53;;
59388;SDS011;51830;45.202;19.720;2023-04-15T02:33:07;10.98;;;2.88;;
59388;SDS011;51830;45.202;19.720;2023-04-15T02:35:33;10.70;;;2.85;;
59388;SDS011;51830;45.202;19.720;2023-04-15T02:38:02;8.00;;;2.80;;
59388;SDS011;51830;45.202;19.720;2023-04-15T02:40:28;9.10;;;2.60;;
59388;SDS011;51830;45.202;19.720;2023-04-15T02:42:55;10.77;;;2.53;;
59388;SDS011;51830;45.202;19.720;2023-04-15T02:45:21;9.27;;;2.67;;
59388;SDS011;51830;45.202;19.720;2023-04-15T02:47:50;7.95;;;2.30;;
59388;SDS011;51830;45.202;19.720;2023-04-15T02:50:16;7.25;;;2.22;;
59388;SDS011;51830;45.202;19.720;2023-04-15T02:52:43;8.10;;;2.58;;
59388;SDS011;51830;45.202;19.720;2023-04-15T02:55:09;6.25;;;2.25;;
59388;SDS011;51830;45.202;19.720;2023-04-15T02:57:35;6.45;;;2.03;;
59388;SDS011;51830;45.202;19.720;2023-04-15T03:00:03;5.43;;;1.65;;
59388;SDS011;51830;45.202;19.720;2023-04-15T03:02:33;5.50;;;1.95;;
59388;SDS011;51830;45.202;19.720;2023-04-15T03:05:00;5.25;;;1.90;;
59388;SDS011;51830;45.202;19.720;2023-04-15T03:07:26;5.97;;;1.80;;
59388;SDS011;51830;45.202;19.720;2023-04-15T03:09:52;10.70;;;1.80;;
59388;SDS011;51830;45.202;19.720;2023-04-15T03:12:18;6.00;;;2.08;;
59388;SDS011;51830;45.202;19.720;2023-04-15T03:14:44;2.75;;;1.25;;
59388;SDS011;51830;45.202;19.720;2023-04-15T03:17:10;3.50;;;1.60;;
59388;SDS011;51830;45.202;19.720;2023-04-15T03:19:37;7.20;;;2.17;;
59388;SDS011;51830;45.202;19.720;2023-04-15T03:22:03;4.13;;;1.73;;
59388;SDS011;51830;45.202;19.720;2023-04-15T03:24:29;5.97;;;1.80;;
59388;SDS011;51830;45.202;19.720;2023-04-15T03:26:55;1.73;;;1.15;;
59388;SDS011;51830;45.202;19.720;2023-04-15T03:29:22;3.63;;;1.65;;
59388;SDS011;51830;45.202;19.720;2023-04-15T03:31:48;6.03;;;2.28;;
59388;SDS011;51830;45.202;19.720;2023-04-15T03:34:15;5.07;;;1.40;;
59388;SDS011;51830;45.202;19.720;2023-04-15T03:36:41;2.05;;;1.30;;
59388;SDS011;51830;45.202;19.720;2023-04-15T03:39:07;4.13;;;1.65;;
59388;SDS011;51830;45.202;19.720;2023-04-15T03:41:34;9.82;;;1.98;;
59388;SDS011;51830;45.202;19.720;2023-04-15T03:44:00;4.90;;;1.83;;
59388;SDS011;51830;45.202;19.720;2023-04-15T03:46:26;6.50;;;1.52;;
59388;SDS011;51830;45.202;19.720;2023-04-15T03:48:52;16.92;;;2.05;;
59388;SDS011;51830;45.202;19.720;2023-04-15T03:51:18;6.32;;;2.00;;
59388;SDS011;51830;45.202;19.720;2023-04-15T03:53:45;4.32;;;1.38;;
59388;SDS011;51830;45.202;19.720;2023-04-15T03:56:11;6.30;;;1.63;;
59388;SDS011;51830;45.202;19.720;2023-04-15T03:58:38;3.60;;;1.23;;
59388;SDS011;51830;45.202;19.720;2023-04-15T04:01:04;4.53;;;1.67;;
59388;SDS011;51830;45.202;19.720;2023-04-15T04:03:30;7.05;;;1.77;;
59388;SDS011;51830;45.202;19.720;2023-04-15T04:05:57;3.03;;;1.15;;
59388;SDS011;51830;45.202;19.720;2023-04-15T04:08:23;5.00;;;2.05;;
59388;SDS011;51830;45.202;19.720;2023-04-15T04:10:51;4.60;;;1.75;;
59388;SDS011;51830;45.202;19.720;2023-04-15T04:13:17;4.57;;;1.80;;
59388;SDS011;51830;45.202;19.720;2023-04-15T04:15:43;4.10;;;1.42;;
59388;SDS011;51830;45.202;19.720;2023-04-15T04:18:09;4.72;;;1.75;;
59388;SDS011;51830;45.202;19.720;2023-04-15T04:20:35;9.18;;;2.20;;
59388;SDS011;51830;45.202;19.720;2023-04-15T04:23:02;7.35;;;2.40;;
59388;SDS011;51830;45.202;19.720;2023-04-15T04:25:28;5.95;;;1.85;;
59388;SDS011;51830;45.202;19.720;2023-04-15T04:27:58;6.97;;;2.20;;
59388;SDS011;51830;45.202;19.720;2023-04-15T04:30:24;8.25;;;2.03;;
59388;SDS011;51830;45.202;19.720;2023-04-15T04:32:50;7.10;;;2.25;;
59388;SDS011;51830;45.202;19.720;2023-04-15T04:35:16;4.95;;;1.77;;
59388;SDS011;51830;45.202;19.720;2023-04-15T04:37:43;2.97;;;1.33;;
59388;SDS011;51830;45.202;19.720;2023-04-15T04:40:09;8.20;;;1.80;;
59388;SDS011;51830;45.202;19.720;2023-04-15T04:42:35;12.02;;;1.95;;
59388;SDS011;51830;45.202;19.720;2023-04-15T04:45:02;5.88;;;1.83;;
59388;SDS011;51830;45.202;19.720;2023-04-15T04:47:28;6.28;;;1.98;;
59388;SDS011;51830;45.202;19.720;2023-04-15T04:49:54;5.07;;;1.75;;
59388;SDS011;51830;45.202;19.720;2023-04-15T04:52:20;5.85;;;2.08;;
59388;SDS011;51830;45.202;19.720;2023-04-15T04:54:47;5.68;;;2.00;;
59388;SDS011;51830;45.202;19.720;2023-04-15T04:57:13;7.00;;;2.08;;
59388;SDS011;51830;45.202;19.720;2023-04-15T04:59:39;6.47;;;2.00;;
59388;SDS011;51830;45.202;19.720;2023-04-15T05:02:05;4.78;;;1.73;;
59388;SDS011;51830;45.202;19.720;2023-04-15T05:04:32;7.70;;;2.33;;
59388;SDS011;51830;45.202;19.720;2023-04-15T05:06:58;6.35;;;1.98;;
59388;SDS011;51830;45.202;19.720;2023-04-15T05:09:24;7.25;;;2.30;;
59388;SDS011;51830;45.202;19.720;2023-04-15T05:11:51;6.15;;;1.83;;
59388;SDS011;51830;45.202;19.720;2023-04-15T05:14:17;6.68;;;2.10;;
59388;SDS011;51830;45.202;19.720;2023-04-15T05:16:43;4.70;;;1.70;;
59388;SDS011;51830;45.202;19.720;2023-04-15T05:19:09;3.58;;;1.58;;
59388;SDS011;51830;45.202;19.720;2023-04-15T05:21:35;10.18;;;2.58;;
59388;SDS011;51830;45.202;19.720;2023-04-15T05:24:02;8.05;;;2.13;;
59388;SDS011;51830;45.202;19.720;2023-04-15T05:26:28;16.42;;;3.15;;
59388;SDS011;51830;45.202;19.720;2023-04-15T05:28:55;18.20;;;4.38;;
59388;SDS011;51830;45.202;19.720;2023-04-15T05:31:22;11.88;;;3.10;;
59388;SDS011;51830;45.202;19.720;2023-04-15T05:33:48;15.70;;;3.42;;
59388;SDS011;51830;45.202;19.720;2023-04-15T05:36:14;13.98;;;3.80;;
59388;SDS011;51830;45.202;19.720;2023-04-15T05:38:40;19.08;;;4.25;;
59388;SDS011;51830;45.202;19.720;2023-04-15T05:41:06;14.80;;;3.78;;
59388;SDS011;51830;45.202;19.720;2023-04-15T05:43:33;15.27;;;3.78;;
59388;SDS011;51830;45.202;19.720;2023-04-15T05:45:59;10.00;;;2.70;;
59388;SDS011;51830;45.202;19.720;2023-04-15T05:48:25;11.45;;;3.28;;
59388;SDS011;51830;45.202;19.720;2023-04-15T05:50:52;13.25;;;2.83;;
59388;SDS011;51830;45.202;19.720;2023-04-15T05:53:18;12.63;;;3.40;;
59388;SDS011;51830;45.202;19.720;2023-04-15T05:55:45;10.60;;;2.72;;
59388;SDS011;51830;45.202;19.720;2023-04-15T05:58:11;12.57;;;2.97;;
59388;SDS011;51830;45.202;19.720;2023-04-15T06:00:38;15.93;;;3.45;;
59388;SDS011;51830;45.202;19.720;2023-04-15T06:03:04;43.80;;;13.50;;
59388;SDS011;51830;45.202;19.720;2023-04-15T06:05:31;96.78;;;25.48;;
59388;SDS011;51830;45.202;19.720;2023-04-15T06:07:58;70.82;;;21.48;;
59388;SDS011;51830;45.202;19.720;2023-04-15T06:10:25;26.73;;;8.63;;
59388;SDS011;51830;45.202;19.720;2023-04-15T06:12:51;21.02;;;4.97;;
59388;SDS011;51830;45.202;19.720;2023-04-15T06:15:18;11.40;;;2.67;;
59388;SDS011;51830;45.202;19.720;2023-04-15T06:17:44;12.43;;;2.83;;
59388;SDS011;51830;45.202;19.720;2023-04-15T06:20:10;11.13;;;2.95;;
59388;SDS011;51830;45.202;19.720;2023-04-15T06:22:36;6.63;;;1.88;;
59388;SDS011;51830;45.202;19.720;2023-04-15T06:25:06;6.30;;;1.60;;
59388;SDS011;51830;45.202;19.720;2023-04-15T06:27:33;5.82;;;1.63;;
59388;SDS011;51830;45.202;19.720;2023-04-15T06:30:00;8.68;;;1.70;;
59388;SDS011;51830;45.202;19.720;2023-04-15T06:32:26;4.93;;;1.65;;
59388;SDS011;51830;45.202;19.720;2023-04-15T06:34:52;4.43;;;1.38;;
59388;SDS011;51830;45.202;19.720;2023-04-15T06:37:19;3.05;;;1.13;;
59388;SDS011;51830;45.202;19.720;2023-04-15T06:39:45;5.97;;;1.90;;
59388;SDS011;51830;45.202;19.720;2023-04-15T06:42:12;7.18;;;1.98;;
59388;SDS011;51830;45.202;19.720;2023-04-15T06:44:38;4.70;;;1.85;;
59388;SDS011;51830;45.202;19.720;2023-04-15T06:47:04;5.05;;;1.60;;
59388;SDS011;51830;45.202;19.720;2023-04-15T06:49:30;8.00;;;1.77;;
59388;SDS011;51830;45.202;19.720;2023-04-15T06:51:57;4.53;;;1.67;;
59388;SDS011;51830;45.202;19.720;2023-04-15T06:54:24;4.53;;;1.25;;
59388;SDS011;51830;45.202;19.720;2023-04-15T06:56:54;3.55;;;1.27;;
59388;SDS011;51830;45.202;19.720;2023-04-15T06:59:20;3.20;;;1.00;;
59388;SDS011;51830;45.202;19.720;2023-04-15T07:01:46;4.10;;;1.30;;
59388;SDS011;51830;45.202;19.720;2023-04-15T07:04:12;1.92;;;0.68;;
59388;SDS011;51830;45.202;19.720;2023-04-15T07:06:39;2.55;;;1.05;;
59388;SDS011;51830;45.202;19.720;2023-04-15T07:09:05;5.38;;;1.35;;
59388;SDS011;51830;45.202;19.720;2023-04-15T07:11:32;0.95;;;0.77;;
59388;SDS011;51830;45.202;19.720;2023-04-15T07:13:59;2.08;;;0.90;;
59388;SDS011;51830;45.202;19.720;2023-04-15T07:16:25;5.30;;;1.60;;
59388;SDS011;51830;45.202;19.720;2023-04-15T07:18:51;2.40;;;1.20;;
59388;SDS011;51830;45.202;19.720;2023-04-15T07:21:17;6.85;;;1.75;;
59388;SDS011;51830;45.202;19.720;2023-04-15T07:23:44;9.18;;;2.08;;
59388;SDS011;51830;45.202;19.720;2023-04-15T07:26:10;7.20;;;2.13;;
59388;SDS011;51830;45.202;19.720;2023-04-15T07:28:36;2.22;;;1.02;;
59388;SDS011;51830;45.202;19.720;2023-04-15T07:31:02;5.50;;;1.55;;
59388;SDS011;51830;45.202;19.720;2023-04-15T07:33:29;3.00;;;1.25;;
59388;SDS011;51830;45.202;19.720;2023-04-15T07:35:55;2.65;;;1.25;;
59388;SDS011;51830;45.202;19.720;2023-04-15T07:38:21;8.10;;;1.60;;
59388;SDS011;51830;45.202;19.720;2023-04-15T07:40:48;4.85;;;1.55;;
59388;SDS011;51830;45.202;19.720;2023-04-15T07:43:14;5.30;;;1.40;;
59388;SDS011;51830;45.202;19.720;2023-04-15T07:45:41;5.65;;;1.17;;
59388;SDS011;51830;45.202;19.720;2023-04-15T07:48:07;3.45;;;1.00;;
59388;SDS011;51830;45.202;19.720;2023-04-15T07:50:33;6.35;;;1.23;;
59388;SDS011;51830;45.202;19.720;2023-04-15T07:52:59;3.95;;;1.33;;
59388;SDS011;51830;45.202;19.720;2023-04-15T07:55:25;2.95;;;1.02;;
59388;SDS011;51830;45.202;19.720;2023-04-15T07:57:51;2.97;;;1.20;;
59388;SDS011;51830;45.202;19.720;2023-04-15T08:00:18;4.85;;;1.00;;
59388;SDS011;51830;45.202;19.720;2023-04-15T08:02:44;2.88;;;1.25;;
59388;SDS011;51830;45.202;19.720;2023-04-15T08:05:12;8.70;;;1.90;;
59388;SDS011;51830;45.202;19.720;2023-04-15T08:07:39;7.75;;;1.75;;
59388;SDS011;51830;45.202;19.720;2023-04-15T08:10:05;10.70;;;2.63;;
59388;SDS011;51830;45.202;19.720;2023-04-15T08:12:31;4.47;;;1.80;;
59388;SDS011;51830;45.202;19.720;2023-04-15T08:14:58;11.65;;;2.70;;
59388;SDS011;51830;45.202;19.720;2023-04-15T08:17:25;11.57;;;2.40;;
59388;SDS011;51830;45.202;19.720;2023-04-15T08:19:51;17.17;;;1.92;;
59388;SDS011;51830;45.202;19.720;2023-04-15T08:22:17;4.05;;;1.40;;
59388;SDS011;51830;45.202;19.720;2023-04-15T08:24:44;5.38;;;1.70;;
59388;SDS011;51830;45.202;19.720;2023-04-15T08:27:10;7.28;;;2.20;;
59388;SDS011;51830;45.202;19.720;2023-04-15T08:29:36;6.72;;;2.10;;
59388;SDS011;51830;45.202;19.720;2023-04-15T08:32:03;9.43;;;1.88;;
59388;SDS011;51830;45.202;19.720;2023-04-15T08:34:29;5.53;;;1.80;;
59388;SDS011;51830;45.202;19.720;2023-04-15T08:36:56;5.88;;;1.55;;
59388;SDS011;51830;45.202;19.720;2023-04-15T08:39:22;3.72;;;1.25;;
59388;SDS011;51830;45.202;19.720;2023-04-15T08:41:55;3.05;;;1.20;;
59388;SDS011;51830;45.202;19.720;2023-04-15T08:44:22;3.65;;;1.38;;
59388;SDS011;51830;45.202;19.720;2023-04-15T08:46:50;3.92;;;1.45;;
59388;SDS011;51830;45.202;19.720;2023-04-15T08:49:16;7.97;;;1.60;;
59388;SDS011;51830;45.202;19.720;2023-04-15T08:51:44;6.70;;;1.70;;
59388;SDS011;51830;45.202;19.720;2023-04-15T08:54:10;6.55;;;1.83;;
59388;SDS011;51830;45.202;19.720;2023-04-15T08:56:37;10.38;;;2.53;;
59388;SDS011;51830;45.202;19.720;2023-04-15T08:59:03;6.90;;;1.80;;
59388;SDS011;51830;45.202;19.720;2023-04-15T09:01:33;8.20;;;2.35;;
59388;SDS011;51830;45.202;19.720;2023-04-15T09:03:59;8.23;;;1.95;;
59388;SDS011;51830;45.202;19.720;2023-04-15T09:06:28;12.55;;;2.28;;
59388;SDS011;51830;45.202;19.720;2023-04-15T09:08:54;7.18;;;2.00;;
59388;SDS011;51830;45.202;19.720;2023-04-15T09:11:20;9.02;;;2.15;;
59388;SDS011;51830;45.202;19.720;2023-04-15T09:13:46;5.82;;;1.65;;
59388;SDS011;51830;45.202;19.720;2023-04-15T09:16:13;3.40;;;1.55;;
59388;SDS011;51830;45.202;19.720;2023-04-15T09:18:39;3.85;;;1.65;;
59388;SDS011;51830;45.202;19.720;2023-04-15T09:21:15;4.65;;;1.45;;
59388;SDS011;51830;45.202;19.720;2023-04-15T09:23:55;4.03;;;1.42;;
59388;SDS011;51830;45.202;19.720;2023-04-15T09:26:32;1.00;;;0.90;;
59388;SDS011;51830;45.202;19.720;2023-04-15T09:29:05;4.03;;;1.20;;
59388;SDS011;51830;45.202;19.720;2023-04-15T09:31:31;1.88;;;1.10;;
59388;SDS011;51830;45.202;19.720;2023-04-15T09:33:57;4.95;;;1.67;;
59388;SDS011;51830;45.202;19.720;2023-04-15T09:36:24;5.13;;;1.70;;
59388;SDS011;51830;45.202;19.720;2023-04-15T09:38:54;4.72;;;1.33;;
59388;SDS011;51830;45.202;19.720;2023-04-15T09:41:21;5.32;;;1.73;;
59388;SDS011;51830;45.202;19.720;2023-04-15T09:43:48;3.78;;;1.33;;
59388;SDS011;51830;45.202;19.720;2023-04-15T09:46:14;4.15;;;1.35;;
59388;SDS011;51830;45.202;19.720;2023-04-15T09:48:40;6.22;;;1.92;;
59388;SDS011;51830;45.202;19.720;2023-04-15T09:51:07;5.82;;;1.90;;
59388;SDS011;51830;45.202;19.720;2023-04-15T09:53:33;9.95;;;2.17;;
59388;SDS011;51830;45.202;19.720;2023-04-15T09:56:00;8.98;;;2.20;;
59388;SDS011;51830;45.202;19.720;2023-04-15T09:58:27;3.67;;;1.35;;
59388;SDS011;51830;45.202;19.720;2023-04-15T10:00:54;6.22;;;1.75;;
59388;SDS011;51830;45.202;19.720;2023-04-15T10:05:48;4.13;;;1.60;;
59388;SDS011;51830;45.202;19.720;2023-04-15T10:08:15;5.72;;;1.77;;
59388;SDS011;51830;45.202;19.720;2023-04-15T10:10:43;2.88;;;1.50;;
59388;SDS011;51830;45.202;19.720;2023-04-15T10:13:09;5.97;;;1.60;;
59388;SDS011;51830;45.202;19.720;2023-04-15T10:15:37;6.25;;;1.75;;
59388;SDS011;51830;45.202;19.720;2023-04-15T10:18:03;2.45;;;1.13;;
59388;SDS011;51830;45.202;19.720;2023-04-15T10:20:30;13.65;;;2.35;;
59388;SDS011;51830;45.202;19.720;2023-04-15T10:22:56;11.10;;;2.53;;
59388;SDS011;51830;45.202;19.720;2023-04-15T10:25:22;9.98;;;2.53;;
59388;SDS011;51830;45.202;19.720;2023-04-15T10:27:50;9.85;;;2.35;;
59388;SDS011;51830;45.202;19.720;2023-04-15T10:30:17;4.95;;;1.55;;
59388;SDS011;51830;45.202;19.720;2023-04-15T10:32:43;4.80;;;1.73;;
59388;SDS011;51830;45.202;19.720;2023-04-15T10:35:09;1.27;;;0.95;;
59388;SDS011;51830;45.202;19.720;2023-04-15T10:37:36;2.75;;;1.40;;
59388;SDS011;51830;45.202;19.720;2023-04-15T10:42:48;3.53;;;1.65;;
59388;SDS011;51830;45.202;19.720;2023-04-15T10:45:17;2.85;;;1.48;;
59388;SDS011;51830;45.202;19.720;2023-04-15T10:47:44;5.07;;;1.95;;
59388;SDS011;51830;45.202;19.720;2023-04-15T10:50:10;4.03;;;1.50;;
59388;SDS011;51830;45.202;19.720;2023-04-15T10:52:38;2.97;;;1.35;;
59388;SDS011;51830;45.202;19.720;2023-04-15T10:55:15;3.97;;;1.60;;
59388;SDS011;51830;45.202;19.720;2023-04-15T10:57:43;3.85;;;1.50;;
59388;SDS011;51830;45.202;19.720;2023-04-15T11:02:39;2.67;;;1.48;;
59388;SDS011;51830;45.202;19.720;2023-04-15T11:05:06;4.07;;;1.50;;
59388;SDS011;51830;45.202;19.720;2023-04-15T11:10:03;5.50;;;1.48;;
59388;SDS011;51830;45.202;19.720;2023-04-15T11:12:33;5.95;;;1.70;;
59388;SDS011;51830;45.202;19.720;2023-04-15T11:17:47;2.80;;;1.38;;
59388;SDS011;51830;45.202;19.720;2023-04-15T11:20:14;5.18;;;1.85;;
59388;SDS011;51830;45.202;19.720;2023-04-15T11:22:49;7.85;;;2.10;;
59388;SDS011;51830;45.202;19.720;2023-04-15T11:25:25;9.48;;;2.05;;
59388;SDS011;51830;45.202;19.720;2023-04-15T11:27:52;6.85;;;2.08;;
59388;SDS011;51830;45.202;19.720;2023-04-15T11:30:19;4.28;;;1.63;;
59388;SDS011;51830;45.202;19.720;2023-04-15T11:32:49;3.38;;;1.48;;
59388;SDS011;51830;45.202;19.720;2023-04-15T11:35:16;5.63;;;1.77;;
59388;SDS011;51830;45.202;19.720;2023-04-15T11:37:43;5.82;;;2.00;;
59388;SDS011;51830;45.202;19.720;2023-04-15T11:40:10;4.97;;;1.63;;
59388;SDS011;51830;45.202;19.720;2023-04-15T11:42:36;6.18;;;1.92;;
59388;SDS011;51830;45.202;19.720;2023-04-15T11:45:09;5.00;;;1.83;;
59388;SDS011;51830;45.202;19.720;2023-04-15T11:47:35;5.32;;;1.58;;
59388;SDS011;51830;45.202;19.720;2023-04-15T11:52:56;2.67;;;1.35;;
59388;SDS011;51830;45.202;19.720;2023-04-15T11:55:23;3.42;;;1.50;;
59388;SDS011;51830;45.202;19.720;2023-04-15T11:57:49;5.80;;;1.90;;
59388;SDS011;51830;45.202;19.720;2023-04-15T12:00:16;6.70;;;1.85;;
59388;SDS011;51830;45.202;19.720;2023-04-15T12:02:42;5.75;;;1.80;;
59388;SDS011;51830;45.202;19.720;2023-04-15T12:05:08;2.83;;;1.27;;
59388;SDS011;51830;45.202;19.720;2023-04-15T12:10:23;3.25;;;1.33;;
59388;SDS011;51830;45.202;19.720;2023-04-15T12:12:51;4.28;;;1.67;;
59388;SDS011;51830;45.202;19.720;2023-04-15T12:15:20;4.90;;;1.52;;
59388;SDS011;51830;45.202;19.720;2023-04-15T12:17:48;5.57;;;1.60;;
59388;SDS011;51830;45.202;19.720;2023-04-15T12:20:19;4.53;;;1.60;;
59388;SDS011;51830;45.202;19.720;2023-04-15T12:22:46;4.63;;;1.80;;
59388;SDS011;51830;45.202;19.720;2023-04-15T12:25:12;4.47;;;1.65;;
59388;SDS011;51830;45.202;19.720;2023-04-15T12:27:40;5.47;;;1.55;;
59388;SDS011;51830;45.202;19.720;2023-04-15T12:30:06;2.90;;;1.50;;
59388;SDS011;51830;45.202;19.720;2023-04-15T12:32:35;5.97;;;1.77;;
59388;SDS011;51830;45.202;19.720;2023-04-15T12:35:02;6.88;;;1.98;;
59388;SDS011;51830;45.202;19.720;2023-04-15T12:37:29;3.58;;;1.40;;
59388;SDS011;51830;45.202;19.720;2023-04-15T12:39:55;3.30;;;1.48;;
59388;SDS011;51830;45.202;19.720;2023-04-15T12:42:21;5.10;;;1.52;;
59388;SDS011;51830;45.202;19.720;2023-04-15T12:44:48;5.05;;;1.55;;
59388;SDS011;51830;45.202;19.720;2023-04-15T12:47:14;5.78;;;1.60;;
59388;SDS011;51830;45.202;19.720;2023-04-15T12:49:40;5.68;;;1.42;;
59388;SDS011;51830;45.202;19.720;2023-04-15T12:52:06;4.95;;;1.58;;
59388;SDS011;51830;45.202;19.720;2023-04-15T12:54:33;4.85;;;1.65;;
59388;SDS011;51830;45.202;19.720;2023-04-15T12:57:01;9.43;;;2.03;;
59388;SDS011;51830;45.202;19.720;2023-04-15T12:59:27;5.18;;;1.65;;
59388;SDS011;51830;45.202;19.720;2023-04-15T13:01:53;4.70;;;1.73;;
59388;SDS011;51830;45.202;19.720;2023-04-15T13:04:19;6.97;;;1.83;;
59388;SDS011;51830;45.202;19.720;2023-04-15T13:06:46;4.25;;;1.35;;
59388;SDS011;51830;45.202;19.720;2023-04-15T13:09:12;2.85;;;1.40;;
59388;SDS011;51830;45.202;19.720;2023-04-15T13:11:38;3.10;;;1.27;;
59388;SDS011;51830;45.202;19.720;2023-04-15T13:14:06;3.40;;;1.45;;
59388;SDS011;51830;45.202;19.720;2023-04-15T13:16:33;2.05;;;1.10;;
59388;SDS011;51830;45.202;19.720;2023-04-15T13:18:59;4.97;;;1.77;;
59388;SDS011;51830;45.202;19.720;2023-04-15T13:21:26;4.68;;;1.80;;
59388;SDS011;51830;45.202;19.720;2023-04-15T13:23:52;9.38;;;2.00;;
59388;SDS011;51830;45.202;19.720;2023-04-15T13:26:19;3.55;;;1.38;;
59388;SDS011;51830;45.202;19.720;2023-04-15T13:28:46;3.47;;;1.40;;
59388;SDS011;51830;45.202;19.720;2023-04-15T13:31:12;3.70;;;1.45;;
59388;SDS011;51830;45.202;19.720;2023-04-15T13:33:38;2.55;;;1.58;;
59388;SDS011;51830;45.202;19.720;2023-04-15T13:36:05;8.05;;;1.65;;
59388;SDS011;51830;45.202;19.720;2023-04-15T13:38:31;4.03;;;1.42;;
59388;SDS011;51830;45.202;19.720;2023-04-15T13:40:58;8.43;;;1.73;;
59388;SDS011;51830;45.202;19.720;2023-04-15T13:43:24;5.15;;;1.52;;
59388;SDS011;51830;45.202;19.720;2023-04-15T13:45:50;4.43;;;1.60;;
59388;SDS011;51830;45.202;19.720;2023-04-15T13:48:16;7.32;;;1.70;;
59388;SDS011;51830;45.202;19.720;2023-04-15T13:50:43;3.70;;;1.30;;
59388;SDS011;51830;45.202;19.720;2023-04-15T13:53:12;4.45;;;1.40;;
59388;SDS011;51830;45.202;19.720;2023-04-15T13:55:38;4.10;;;1.33;;
59388;SDS011;51830;45.202;19.720;2023-04-15T13:58:07;3.53;;;1.35;;
59388;SDS011;51830;45.202;19.720;2023-04-15T14:00:33;4.07;;;1.52;;
59388;SDS011;51830;45.202;19.720;2023-04-15T14:03:00;3.17;;;1.23;;
59388;SDS011;51830;45.202;19.720;2023-04-15T14:05:26;4.70;;;1.42;;
59388;SDS011;51830;45.202;19.720;2023-04-15T14:07:52;3.75;;;1.48;;
59388;SDS011;51830;45.202;19.720;2023-04-15T14:10:19;3.60;;;1.33;;
59388;SDS011;51830;45.202;19.720;2023-04-15T14:12:45;3.58;;;1.33;;
59388;SDS011;51830;45.202;19.720;2023-04-15T14:15:11;2.83;;;1.13;;
59388;SDS011;51830;45.202;19.720;2023-04-15T14:17:38;5.75;;;1.50;;
59388;SDS011;51830;45.202;19.720;2023-04-15T14:20:06;9.70;;;2.13;;
59388;SDS011;51830;45.202;19.720;2023-04-15T14:22:33;9.85;;;2.63;;
59388;SDS011;51830;45.202;19.720;2023-04-15T14:24:59;7.13;;;2.15;;
59388;SDS011;51830;45.202;19.720;2023-04-15T14:27:26;9.43;;;2.67;;
59388;SDS011;51830;45.202;19.720;2023-04-15T14:29:52;7.07;;;2.25;;
59388;SDS011;51830;45.202;19.720;2023-04-15T14:32:18;9.65;;;2.67;;
59388;SDS011;51830;45.202;19.720;2023-04-15T14:34:45;8.82;;;2.28;;
59388;SDS011;51830;45.202;19.720;2023-04-15T14:37:11;6.10;;;1.90;;
59388;SDS011;51830;45.202;19.720;2023-04-15T14:39:37;11.20;;;2.65;;
59388;SDS011;51830;45.202;19.720;2023-04-15T14:42:05;9.90;;;2.55;;
59388;SDS011;51830;45.202;19.720;2023-04-15T14:44:31;14.25;;;3.78;;
59388;SDS011;51830;45.202;19.720;2023-04-15T14:46:57;11.88;;;2.78;;